createdAt,value
2019-06-10T00:00:13.772Z,99.90
2019-06-10T00:02:35.648Z,99.90
2019-06-10T00:05:07.180Z,99.90
2019-06-10T00:07:33.658Z,99.90
2019-06-10T00:10:03.996Z,99.90
2019-06-10T00:12:31.467Z,99.90
2019-06-10T00:14:58.712Z,99.90
2019-06-10T00:17:25.188Z,99.90
2019-06-10T00:19:51.809Z,99.90
2019-06-10T00:22:18.283Z,99.90
2019-06-10T00:24:44.657Z,99.90
2019-06-10T00:27:11.850Z,99.90
2019-06-10T00:29:40.735Z,99.90
2019-06-10T00:32:08.531Z,99.90
2019-06-10T00:34:35.225Z,99.90
2019-06-10T00:37:04.515Z,99.90
2019-06-10T00:39:31.268Z,99.90
2019-06-10T00:41:58.024Z,99.90
2019-06-10T00:44:24.689Z,99.90
2019-06-10T00:46:51.748Z,99.90
2019-06-10T00:49:21.984Z,99.90
2019-06-10T00:51:50.956Z,99.90
2019-06-10T00:54:17.263Z,99.90
2019-06-10T00:56:43.786Z,99.90
2019-06-10T00:59:12.753Z,99.90
2019-06-10T01:01:41.378Z,99.90
2019-06-10T01:04:08.655Z,99.90
2019-06-10T01:06:35.532Z,99.90
2019-06-10T01:09:02.580Z,99.90
2019-06-10T01:11:31.102Z,99.90
2019-06-10T01:13:57.630Z,99.90
2019-06-10T01:16:25.885Z,99.90
2019-06-10T01:18:53.568Z,99.90
2019-06-10T01:21:21.817Z,99.90
2019-06-10T01:23:50.848Z,99.90
2019-06-10T01:26:18.231Z,99.90
2019-06-10T01:28:44.777Z,99.90
2019-06-10T01:31:18.686Z,99.90
2019-06-10T01:33:41.108Z,99.90
2019-06-10T01:36:07.793Z,99.90
2019-06-10T01:38:34.373Z,99.90
2019-06-10T01:41:01.478Z,99.90
2019-06-10T01:43:31.943Z,99.90
2019-06-10T01:45:56.528Z,99.90
2019-06-10T01:48:23.048Z,99.90
2019-06-10T01:50:51.245Z,99.90
2019-06-10T01:53:18.848Z,99.90
2019-06-10T01:55:45.436Z,99.90
2019-06-10T01:58:14.746Z,99.90
2019-06-10T02:00:41.940Z,99.90
2019-06-10T02:03:11.595Z,99.90
2019-06-10T02:05:36.817Z,99.90
2019-06-10T02:08:03.464Z,99.90
2019-06-10T02:10:31.063Z,99.90
2019-06-10T02:12:57.582Z,99.90
2019-06-10T02:15:24.205Z,99.90
2019-06-10T02:17:51.063Z,99.90
2019-06-10T02:20:18.466Z,99.90
2019-06-10T02:22:45.673Z,99.90
2019-06-10T02:25:13.637Z,99.90
2019-06-10T02:27:41.473Z,99.90
2019-06-10T02:30:19.002Z,99.90
2019-06-10T02:32:37.871Z,99.90
2019-06-10T02:35:14.356Z,99.90
2019-06-10T02:37:37.929Z,99.90
2019-06-10T02:40:04.541Z,99.90
2019-06-10T02:42:35.772Z,99.90
2019-06-10T02:45:03.733Z,99.90
2019-06-10T02:47:33.565Z,99.90
2019-06-10T02:50:03.326Z,99.90
2019-06-10T02:52:32.953Z,99.90
2019-06-10T02:54:54.944Z,99.90
2019-06-10T02:57:29.699Z,99.90
2019-06-10T02:59:49.916Z,99.90
2019-06-10T03:02:18.144Z,99.90
2019-06-10T03:04:44.530Z,99.90
2019-06-10T03:07:13.714Z,99.90
2019-06-10T03:09:39.352Z,99.90
2019-06-10T03:12:05.985Z,99.90
2019-06-10T03:14:32.888Z,99.90
2019-06-10T03:17:03.194Z,99.90
2019-06-10T03:19:42.226Z,99.90
2019-06-10T03:21:57.981Z,99.90
2019-06-10T03:24:25.355Z,99.90
2019-06-10T03:26:52.297Z,99.90
2019-06-10T03:29:18.797Z,99.90
2019-06-10T03:31:48.251Z,99.90
2019-06-10T03:34:14.890Z,99.90
2019-06-10T03:36:42.907Z,99.90
2019-06-10T03:39:09.562Z,99.90
2019-06-10T03:41:36.129Z,99.90
2019-06-10T03:44:02.767Z,99.90
2019-06-10T03:46:29.370Z,99.90
2019-06-10T03:48:55.753Z,99.90
2019-06-10T03:51:24.296Z,99.90
2019-06-10T03:53:50.360Z,99.90
2019-06-10T03:56:17.154Z,99.90
2019-06-10T03:58:43.907Z,99.90
2019-06-10T04:01:12.299Z,99.90
2019-06-10T04:03:38.344Z,99.90
2019-06-10T04:06:04.953Z,99.90
2019-06-10T04:08:32.911Z,99.90
2019-06-10T04:10:59.737Z,99.90
2019-06-10T04:13:27.247Z,99.90
2019-06-10T04:15:56.346Z,99.90
2019-06-10T04:18:26.022Z,99.90
2019-06-10T04:20:52.891Z,99.90
2019-06-10T04:23:19.686Z,99.90
2019-06-10T04:25:46.294Z,99.90
2019-06-10T04:28:12.792Z,99.90
2019-06-10T04:30:39.357Z,99.90
2019-06-10T04:33:06.125Z,99.90
2019-06-10T04:35:33.677Z,99.90
2019-06-10T04:38:02.394Z,99.90
2019-06-10T04:40:29.345Z,99.90
2019-06-10T04:42:55.956Z,99.90
2019-06-10T04:45:23.591Z,99.90
2019-06-10T04:47:52.424Z,99.90
2019-06-10T04:50:28.348Z,99.90
2019-06-10T04:52:47.441Z,99.90
2019-06-10T04:55:14.077Z,99.90
2019-06-10T04:57:42.917Z,99.90
2019-06-10T05:00:13.848Z,99.90
2019-06-10T05:02:37.685Z,99.90
2019-06-10T05:05:04.256Z,99.90
2019-06-10T05:07:36.520Z,99.90
2019-06-10T05:09:59.532Z,99.90
2019-06-10T05:12:26.754Z,99.90
2019-06-10T05:14:54.512Z,99.90
2019-06-10T05:17:22.198Z,99.90
2019-06-10T05:19:49.210Z,99.90
2019-06-10T05:22:15.808Z,99.90
2019-06-10T05:24:42.491Z,99.90
2019-06-10T05:27:08.969Z,99.90
2019-06-10T05:29:35.695Z,99.90
2019-06-10T05:32:02.562Z,99.90
2019-06-10T05:34:30.313Z,99.90
2019-06-10T05:36:57.502Z,99.90
2019-06-10T05:39:27.080Z,99.90
2019-06-10T05:41:53.097Z,99.90
2019-06-10T05:44:19.722Z,99.90
2019-06-10T05:46:46.634Z,99.90
2019-06-10T05:49:13.091Z,99.90
2019-06-10T05:51:42.119Z,99.90
2019-06-10T05:54:08.158Z,99.90
2019-06-10T05:56:35.669Z,99.90
2019-06-10T05:59:04.404Z,99.90
2019-06-10T06:01:36.292Z,99.90
2019-06-10T06:03:59.373Z,99.90
2019-06-10T06:06:27.046Z,99.90
2019-06-10T06:08:53.639Z,99.90
2019-06-10T06:11:22.946Z,99.90
2019-06-10T06:13:49.069Z,99.90
2019-06-10T06:16:15.576Z,99.90
2019-06-10T06:18:42.496Z,99.90
2019-06-10T06:21:22.557Z,99.90
2019-06-10T06:23:39.133Z,99.90
2019-06-10T06:26:05.783Z,99.90
2019-06-10T06:28:36.071Z,99.90
2019-06-10T06:31:03.329Z,99.90
2019-06-10T06:33:32.771Z,99.90
2019-06-10T06:35:58.427Z,99.90
2019-06-10T06:38:24.963Z,99.90
2019-06-10T06:40:53.733Z,99.90
2019-06-10T06:43:23.016Z,99.90
2019-06-10T06:45:49.976Z,99.90
2019-06-10T06:48:16.648Z,99.90
2019-06-10T06:51:00.314Z,99.90
2019-06-10T06:53:21.147Z,99.90
2019-06-10T06:55:40.118Z,99.90
2019-06-10T06:58:06.631Z,99.90
2019-06-10T07:00:48.896Z,99.90
2019-06-10T07:03:03.175Z,99.90
2019-06-10T07:05:32.698Z,99.90
2019-06-10T07:08:02.418Z,99.90
2019-06-10T07:10:32.868Z,99.90
2019-06-10T07:13:02.834Z,99.90
2019-06-10T07:15:39.692Z,99.90
2019-06-10T07:18:06.929Z,99.90
2019-06-10T07:20:36.300Z,99.90
2019-06-10T07:23:02.679Z,99.90
2019-06-10T07:25:29.281Z,99.90
2019-06-10T07:27:55.745Z,99.30
2019-06-10T07:30:22.987Z,98.50
2019-06-10T07:32:49.674Z,98.20
2019-06-10T07:35:16.217Z,97.60
2019-06-10T07:37:44.512Z,98.10
2019-06-10T07:40:12.944Z,97.30
2019-06-10T07:42:39.454Z,96.40
2019-06-10T07:45:06.035Z,95.50
2019-06-10T07:47:33.907Z,94.90
2019-06-10T07:50:03.047Z,94.70
2019-06-10T07:52:29.603Z,94.60
2019-06-10T07:54:56.130Z,93.70
2019-06-10T07:57:22.811Z,94.10
2019-06-10T07:59:49.310Z,94.70
2019-06-10T08:02:15.821Z,95.00
2019-06-10T08:04:45.557Z,95.00
2019-06-10T08:07:12.492Z,94.50
2019-06-10T08:09:39.233Z,94.30
2019-06-10T08:12:06.113Z,94.50
2019-06-10T08:14:33.044Z,95.40
2019-06-10T08:16:59.854Z,95.30
2019-06-10T08:19:34.971Z,94.70
2019-06-10T08:21:54.808Z,94.90
2019-06-10T08:24:22.128Z,94.90
2019-06-10T08:26:49.120Z,95.70
2019-06-10T08:29:15.591Z,95.00
2019-06-10T08:31:47.586Z,94.60
2019-06-10T08:34:12.891Z,94.30
2019-06-10T08:36:39.945Z,93.20
2019-06-10T08:39:07.293Z,92.10
2019-06-10T08:41:34.257Z,91.20
2019-06-10T08:44:02.309Z,91.60
2019-06-10T08:46:30.102Z,91.60
2019-06-10T08:48:56.593Z,92.30
2019-06-10T08:51:23.892Z,92.90
2019-06-10T08:53:52.942Z,93.70
2019-06-10T08:56:18.870Z,94.70
2019-06-10T08:58:48.879Z,94.20
2019-06-10T09:01:13.878Z,93.90
2019-06-10T09:03:44.730Z,93.40
2019-06-10T09:06:08.859Z,92.50
2019-06-10T09:08:35.501Z,92.00
2019-06-10T09:11:02.493Z,91.70
2019-06-10T09:13:29.211Z,91.50
2019-06-10T09:16:11.693Z,91.30
2019-06-10T09:18:24.284Z,90.30
2019-06-10T09:20:55.284Z,90.00
2019-06-10T09:23:23.162Z,89.70
2019-06-10T09:25:52.860Z,90.00
2019-06-10T09:28:16.228Z,90.00
2019-06-10T09:30:47.609Z,90.10
2019-06-10T09:33:15.361Z,89.40
2019-06-10T09:35:45.777Z,86.80
2019-06-10T09:38:10.333Z,86.40
2019-06-10T09:40:48.408Z,86.10
2019-06-10T09:43:12.949Z,86.00
2019-06-10T09:45:40.880Z,82.80
2019-06-10T09:48:07.998Z,82.00
2019-06-10T09:50:45.468Z,81.30
2019-06-10T09:53:08.720Z,81.50
2019-06-10T09:55:35.181Z,83.00
2019-06-10T09:58:03.195Z,82.20
2019-06-10T10:00:47.334Z,83.60
2019-06-10T10:03:12.465Z,84.60
2019-06-10T10:05:43.135Z,83.60
2019-06-10T10:08:07.824Z,83.50
2019-06-10T10:10:36.218Z,82.80
2019-06-10T10:13:04.332Z,81.90
2019-06-10T10:15:34.414Z,81.10
2019-06-10T10:17:59.395Z,80.10
2019-06-10T10:20:25.942Z,79.10
2019-06-10T10:22:55.419Z,78.40
2019-06-10T10:25:23.541Z,78.20
2019-06-10T10:27:53.334Z,78.30
2019-06-10T10:30:24.462Z,78.00
2019-06-10T10:32:52.324Z,78.80
2019-06-10T10:35:18.825Z,78.40
2019-06-10T10:37:46.406Z,77.20
2019-06-10T10:40:13.034Z,75.90
2019-06-10T10:42:46.004Z,75.20
2019-06-10T10:45:10.234Z,75.20
2019-06-10T10:47:36.739Z,74.70
2019-06-10T10:50:17.961Z,73.80
2019-06-10T13:06:46.645Z,68.00
2019-06-10T13:09:18.488Z,70.10
2019-06-10T13:11:53.119Z,70.70
2019-06-10T13:14:29.038Z,70.50
2019-06-10T13:16:55.826Z,70.00
2019-06-10T13:19:23.165Z,70.20
2019-06-10T13:21:49.720Z,69.20
2019-06-10T13:24:16.254Z,69.40
2019-06-10T13:26:43.313Z,69.70
2019-06-10T13:29:10.354Z,69.90
2019-06-10T13:31:37.779Z,70.50
2019-06-10T13:34:18.789Z,70.70
2019-06-10T13:36:45.158Z,70.20
2019-06-10T13:39:13.430Z,70.80
2019-06-10T13:41:40.074Z,74.30
2019-06-10T13:44:16.908Z,75.10
2019-06-10T13:46:43.522Z,76.80
2019-06-10T13:49:12.337Z,78.10
2019-06-10T13:51:38.419Z,78.30
2019-06-10T13:54:06.679Z,78.20
2019-06-10T13:56:46.595Z,79.00
2019-06-10T13:59:16.817Z,79.20
2019-06-10T14:01:48.551Z,79.40
2019-06-10T14:04:24.815Z,80.90
2019-06-10T14:06:50.574Z,81.80
2019-06-10T14:09:16.926Z,83.10
2019-06-10T14:11:43.561Z,83.80
2019-06-10T14:14:10.073Z,84.00
2019-06-10T14:16:42.361Z,84.10
2019-06-10T14:19:28.887Z,84.00
2019-06-10T14:21:55.309Z,83.80
2019-06-10T14:24:22.842Z,83.50
2019-06-10T14:26:54.576Z,82.40
2019-06-10T14:29:21.040Z,82.20
2019-06-10T14:31:48.176Z,80.40
2019-06-10T14:34:22.326Z,81.10
2019-06-10T14:37:03.720Z,82.20
2019-06-10T14:39:52.751Z,82.40
2019-06-10T14:42:18.911Z,81.80
2019-06-10T14:44:45.293Z,81.70
2019-06-10T14:47:16.998Z,81.20
2019-06-10T14:49:53.805Z,81.60
2019-06-10T14:52:22.576Z,82.00
2019-06-10T14:54:48.580Z,82.90
2019-06-10T14:57:16.421Z,83.80
2019-06-10T14:59:43.526Z,84.60
2019-06-10T15:02:12.551Z,84.00
2019-06-10T15:04:38.325Z,84.20
2019-06-10T15:07:05.030Z,83.10
2019-06-10T15:09:33.460Z,83.20
2019-06-10T15:12:02.826Z,83.10
2019-06-10T15:14:39.847Z,83.80
2019-06-10T15:17:08.375Z,84.40
2019-06-10T15:19:35.089Z,84.60
2019-06-10T15:22:26.565Z,84.90
2019-06-10T15:24:58.088Z,84.40
2019-06-10T15:27:31.668Z,85.10
2019-06-10T15:30:04.417Z,85.30
2019-06-10T15:32:34.533Z,85.10
2019-06-10T15:35:05.604Z,84.70
2019-06-10T15:37:33.019Z,83.40
2019-06-10T15:39:59.890Z,85.10
2019-06-10T15:42:33.317Z,86.00
2019-06-10T15:45:13.301Z,86.90
2019-06-10T15:47:38.665Z,87.00
2019-06-10T15:50:07.424Z,87.60
2019-06-10T15:52:39.187Z,86.20
2019-06-10T15:55:05.854Z,85.70
2019-06-10T15:57:42.643Z,85.70
2019-06-10T16:00:11.279Z,86.20
2019-06-10T16:02:34.603Z,86.10
2019-06-10T16:05:01.148Z,86.90
2019-06-10T16:07:27.828Z,87.90
2019-06-10T16:09:54.508Z,86.50
2019-06-10T16:12:26.569Z,86.20
2019-06-10T16:14:50.082Z,86.00
2019-06-10T16:17:19.168Z,86.80
2019-06-10T16:19:45.904Z,87.30
2019-06-10T16:22:14.033Z,87.80
2019-06-10T16:24:42.310Z,87.10
2019-06-10T16:27:08.792Z,87.50
2019-06-10T16:29:42.361Z,87.60
2019-06-10T16:32:14.636Z,88.00
2019-06-10T16:34:41.129Z,89.00
2019-06-10T16:37:07.759Z,88.20
2019-06-10T16:39:34.252Z,88.20
2019-06-10T16:42:05.887Z,88.40
2019-06-10T16:44:32.939Z,88.50
2019-06-10T16:47:14.499Z,88.90
2019-06-10T16:49:42.870Z,89.10
2019-06-10T16:52:09.463Z,89.70
2019-06-10T16:54:42.062Z,90.00
2019-06-10T16:57:14.918Z,89.90
2019-06-10T16:59:42.933Z,89.80
2019-06-10T17:02:12.770Z,90.10
2019-06-10T17:04:39.397Z,90.30
2019-06-10T17:07:05.897Z,90.60
2019-06-10T17:09:32.819Z,90.90
2019-06-10T17:12:02.080Z,90.90
2019-06-10T17:14:27.874Z,91.10
2019-06-10T17:16:54.753Z,91.60
2019-06-10T17:19:26.341Z,91.70
2019-06-10T17:21:49.865Z,91.90
2019-06-10T17:24:16.391Z,91.90
2019-06-10T17:26:44.161Z,91.70
2019-06-10T17:29:10.818Z,92.10
2019-06-10T17:31:37.457Z,92.30
2019-06-10T17:34:04.105Z,92.00
2019-06-10T17:36:32.840Z,92.10
2019-06-10T17:38:58.871Z,92.10
2019-06-10T17:41:27.560Z,91.70
2019-06-10T17:43:58.709Z,91.90
2019-06-10T17:46:27.833Z,91.90
2019-06-10T17:48:53.475Z,91.70
2019-06-10T17:51:22.342Z,91.50
2019-06-10T17:53:48.245Z,91.50
2019-06-10T17:56:14.711Z,91.70
2019-06-10T17:58:51.571Z,92.00
2019-06-10T18:01:09.659Z,92.00
2019-06-10T18:03:39.787Z,92.10
2019-06-10T18:06:06.481Z,92.30
2019-06-10T18:08:36.320Z,92.40
2019-06-10T18:11:03.212Z,92.50
2019-06-10T18:13:44.721Z,92.60
2019-06-10T18:16:13.167Z,92.60
2019-06-10T18:18:39.630Z,92.80
2019-06-10T18:21:06.805Z,92.90
2019-06-10T18:23:33.355Z,93.10
2019-06-10T18:26:03.272Z,93.00
2019-06-10T18:28:31.359Z,93.10
2019-06-10T18:30:58.553Z,93.20
2019-06-10T18:33:27.672Z,93.20
2019-06-10T18:36:00.330Z,93.30
2019-06-10T18:38:27.336Z,93.30
2019-06-10T18:40:53.894Z,93.50
2019-06-10T18:43:22.688Z,93.70
2019-06-10T18:45:48.829Z,93.90
2019-06-10T18:48:15.454Z,94.20
2019-06-10T18:50:43.642Z,94.20
2019-06-10T18:53:12.829Z,94.40
2019-06-10T18:55:40.578Z,94.20
2019-06-10T18:58:07.026Z,94.20
2019-06-10T19:00:56.962Z,94.30
2019-06-10T19:03:15.872Z,94.50
2019-06-10T19:05:42.114Z,94.60
2019-06-10T19:08:08.533Z,94.70
2019-06-10T19:10:37.060Z,94.70
2019-06-10T19:13:03.544Z,94.70
2019-06-10T19:15:29.929Z,94.70
2019-06-10T19:18:14.971Z,94.90
2019-06-10T19:20:42.575Z,95.20
2019-06-10T19:23:08.056Z,95.10
2019-06-10T19:25:38.472Z,95.40
2019-06-10T19:28:04.150Z,94.80
2019-06-10T19:30:33.539Z,94.80
2019-06-10T19:33:04.193Z,94.20
2019-06-10T19:35:37.003Z,93.90
2019-06-10T19:38:04.328Z,93.90
2019-06-10T19:40:32.558Z,93.90
2019-06-10T19:42:59.147Z,93.90
2019-06-10T19:45:25.660Z,94.00
2019-06-10T19:47:52.342Z,93.90
2019-06-10T19:50:18.960Z,93.90
2019-06-10T19:52:45.612Z,93.80
2019-06-10T19:55:13.409Z,93.80
2019-06-10T19:57:39.825Z,94.00
2019-06-10T20:00:12.415Z,94.30
2019-06-10T20:02:44.557Z,94.60
2019-06-10T20:05:12.469Z,94.20
2019-06-10T20:07:42.027Z,94.30
2019-06-10T20:10:13.777Z,94.20
2019-06-10T20:12:46.747Z,94.40
2019-06-10T20:15:32.818Z,94.30
2019-06-10T20:17:59.617Z,94.40
2019-06-10T20:20:36.242Z,94.60
2019-06-10T20:23:03.238Z,94.70
2019-06-10T20:25:29.836Z,94.90
2019-06-10T20:27:57.419Z,95.10
2019-06-10T20:30:28.740Z,95.20
2019-06-10T20:32:58.266Z,95.40
2019-06-10T20:35:25.197Z,95.70
2019-06-10T20:37:53.812Z,96.10
2019-06-10T20:40:20.326Z,96.50
2019-06-10T20:42:47.080Z,96.70
2019-06-10T20:45:13.652Z,97.00
2019-06-10T20:47:43.063Z,97.30
2019-06-10T20:50:08.844Z,97.60
2019-06-10T20:52:35.336Z,97.90
2019-06-10T20:55:02.999Z,98.00
2019-06-10T20:57:29.862Z,98.20
2019-06-10T20:59:56.231Z,98.40
2019-06-10T21:02:23.403Z,98.70
2019-06-10T21:04:50.098Z,99.30
2019-06-10T21:07:18.763Z,99.50
2019-06-10T21:09:47.142Z,99.90
2019-06-10T21:12:13.982Z,99.90
2019-06-10T21:14:42.343Z,99.90
2019-06-10T21:17:08.790Z,99.90
2019-06-10T21:19:35.155Z,99.90
2019-06-10T21:22:02.735Z,99.90
2019-06-10T21:24:34.299Z,99.90
2019-06-10T21:27:00.694Z,99.90
2019-06-10T21:29:27.306Z,99.90
2019-06-10T21:31:54.830Z,99.90
2019-06-10T21:34:23.908Z,99.90
2019-06-10T21:36:52.753Z,99.90
2019-06-10T21:39:18.719Z,99.90
2019-06-10T21:41:46.582Z,99.90
2019-06-10T21:44:13.420Z,99.90
2019-06-10T21:46:39.708Z,99.90
2019-06-10T21:49:06.212Z,99.90
2019-06-10T21:51:34.640Z,99.90
2019-06-10T21:54:02.913Z,99.90
2019-06-10T21:56:29.164Z,99.90
2019-06-10T21:58:55.754Z,99.90
2019-06-10T22:01:27.490Z,99.90
2019-06-10T22:04:00.439Z,99.90
2019-06-10T22:06:22.911Z,99.90
2019-06-10T22:08:50.079Z,99.90
2019-06-10T22:11:16.641Z,99.90
2019-06-10T22:13:48.144Z,99.90
2019-06-10T22:16:24.630Z,99.90
2019-06-10T22:18:51.013Z,99.90
2019-06-10T22:21:23.156Z,99.90
2019-06-10T22:23:50.778Z,99.90
2019-06-10T22:26:17.992Z,99.90
2019-06-10T22:28:45.400Z,99.90
2019-06-10T22:31:19.158Z,99.90
2019-06-10T22:33:40.026Z,99.90
2019-06-10T22:36:06.569Z,99.90
2019-06-10T22:38:32.996Z,99.90
2019-06-10T22:40:59.342Z,99.90
2019-06-10T22:43:25.782Z,99.90
2019-06-10T22:45:54.241Z,99.90
2019-06-10T22:48:22.444Z,99.90
2019-06-10T22:50:48.989Z,99.90
2019-06-10T22:53:15.600Z,99.90
2019-06-10T22:55:43.236Z,99.90
2019-06-10T22:58:23.455Z,99.90
2019-06-10T23:00:48.292Z,99.90
2019-06-10T23:03:14.748Z,99.90
2019-06-10T23:05:46.153Z,99.90
2019-06-10T23:08:12.830Z,99.90
2019-06-10T23:10:39.357Z,99.90
2019-06-10T23:13:05.871Z,99.90
2019-06-10T23:15:37.243Z,99.90
2019-06-10T23:18:08.515Z,99.90
2019-06-10T23:20:34.859Z,99.90
2019-06-10T23:23:03.068Z,99.90
2019-06-10T23:25:29.343Z,99.90
2019-06-10T23:27:57.915Z,99.90
2019-06-10T23:30:23.991Z,99.90
2019-06-10T23:32:52.828Z,99.90
2019-06-10T23:35:18.820Z,99.90
2019-06-10T23:37:45.181Z,99.90
2019-06-10T23:40:12.699Z,99.90
2019-06-10T23:42:44.207Z,99.90
2019-06-10T23:45:12.768Z,99.90
2019-06-10T23:47:38.983Z,99.90
2019-06-10T23:50:05.636Z,99.90
2019-06-10T23:52:32.998Z,99.90
2019-06-10T23:54:59.987Z,99.90
2019-06-10T23:57:27.009Z,99.90
2019-06-10T23:59:55.076Z,99.90
